Time;durP1;ratioP1;P1;durP2;ratioP2;P2;SDS_P1;SDS_P2;PMS_P1;PMS_P2;Temp;Humidity;BMP_temperature;BMP_pressure;BME280_temperature;BME280_humidity;BME280_pressure;Samples;Min_cycle;Max_cycle;Signal;HPM_P1;HPM_P2
2023/08/27 00:01:10;;;;;;;;;;;;;;;-147.27;100.00;65176.34;5110630;28;19948;-60
2023/08/27 00:03:36;;;;;;;;;;;;;;;-147.27;100.00;65176.34;5117843;28;19995;-58
2023/08/27 00:06:01;;;;;;;;;;;;;;;-147.27;100.00;65176.34;5117200;28;19924;-55
2023/08/27 00:08:27;;;;;;;;;;;;;;;-147.27;100.00;65176.34;5117254;28;19920;-57
2023/08/27 00:11:00;;;;;;;;;;;;;;;-147.27;100.00;65176.34;5117949;28;19951;-55
2023/08/27 00:13:26;;;;;;;;;;;;;;;-147.27;100.00;65176.34;5126309;28;19916;-57
2023/08/27 00:15:51;;;;;;;;;;;;;;;-147.27;100.00;65176.34;5121229;28;19920;-57
2023/08/27 00:18:17;;;;;;;;;;;;;;;-147.27;100.00;65176.34;5117092;28;19922;-58
2023/08/27 00:20:45;;;;;;;;;;;;;;;-147.27;100.00;65176.34;5116932;28;20011;-56
2023/08/27 00:23:14;;;;;;;;;;;;;;;-147.27;100.00;65176.34;5125683;28;19916;-55
2023/08/27 00:25:39;;;;;;;;;;;;;;;-147.27;100.00;65176.34;5116663;28;19923;-55
2023/08/27 00:28:05;;;;;;;;;;;;;;;-147.27;100.00;65176.34;5116490;28;19920;-57
2023/08/27 00:30:30;;;;;;;;;;;;;;;-147.27;100.00;65176.34;5116419;28;19980;-56
2023/08/27 00:32:56;;;;;;;;;;;;;;;-147.27;100.00;65176.34;5132063;28;19923;-56
2023/08/27 00:35:21;;;;;;;;;;;;;;;-147.27;100.00;65176.34;5098268;28;19924;-54
2023/08/27 00:37:47;;;;;;;;;;;;;;;-147.27;100.00;65176.34;5098930;28;19916;-56
2023/08/27 00:40:13;;;;;;;;;;;;;;;-147.27;100.00;65176.34;5116665;28;19981;-58
2023/08/27 00:42:39;;;;;;;;;;;;;;;-147.27;100.00;65176.34;5098979;28;19916;-56
2023/08/27 00:45:06;;;;;;;;;;;;;;;-147.27;100.00;65176.34;5098360;28;19926;-52
2023/08/27 00:47:33;;;;;;;;;;;;;;;-147.27;100.00;65176.34;5122605;28;19920;-54
2023/08/27 00:49:58;;;;;;;;;;;;;;;-147.27;100.00;65176.34;5097904;28;19948;-54
2023/08/27 00:52:24;;;;;;;;;;;;;;;-147.27;100.00;65176.34;5115523;28;19916;-56
2023/08/27 00:54:50;;;;;;;;;;;;;;;-147.27;100.00;65176.34;5115896;28;19926;-55
2023/08/27 00:57:16;;;;;;;;;;;;;;;-147.27;100.00;65176.34;5098090;28;19976;-54
2023/08/27 00:59:42;;;;;;;;;;;;;;;-147.27;100.00;65176.34;5132189;28;19919;-56
2023/08/27 01:02:08;;;;;;;;;;;;;;;-147.27;100.00;65176.34;5104875;28;19915;-56
2023/08/27 01:04:34;;;;;;;;;;;;;;;-147.27;100.00;65176.34;5100484;28;19927;-54
2023/08/27 01:07:04;;;;;;;;;;;;;;;-147.27;100.00;65176.34;5097904;28;19924;-57
2023/08/27 01:09:33;;;;;;;;;;;;;;;-147.27;100.00;65176.34;5115734;28;19955;-57
2023/08/27 01:12:02;;;;;;;;;;;;;;;-147.27;100.00;65176.34;5115854;28;19916;-59
2023/08/27 01:14:29;;;;;;;;;;;;;;;-147.27;100.00;65176.34;5097939;28;19916;-56
2023/08/27 01:16:58;;;;;;;;;;;;;;;-147.27;100.00;65176.34;5131742;28;19916;-57
2023/08/27 01:19:24;;;;;;;;;;;;;;;-147.27;100.00;65176.34;5097810;28;19916;-55
2023/08/27 01:21:49;;;;;;;;;;;;;;;-147.27;100.00;65176.34;5131645;28;19915;-57
2023/08/27 01:24:15;;;;;;;;;;;;;;;-147.27;100.00;65176.34;5097994;28;19927;-53
2023/08/27 01:26:40;;;;;;;;;;;;;;;-147.27;100.00;65176.34;5125017;28;19916;-56
2023/08/27 01:29:23;;;;;;;;;;;;;;;-147.27;100.00;65176.34;5116641;28;19920;-56
2023/08/27 01:32:09;;;;;;;;;;;;;;;-147.27;100.00;65176.34;5131574;28;19995;-53
2023/08/27 01:34:35;;;;;;;;;;;;;;;-147.27;100.00;65176.34;5114982;28;19916;-54
2023/08/27 01:37:01;;;;;;;;;;;;;;;-147.27;100.00;65176.34;5114821;28;19942;-56
2023/08/27 01:39:26;;;;;;;;;;;;;;;-147.27;100.00;65176.34;5115767;28;19916;-53
2023/08/27 01:41:51;;;;;;;;;;;;;;;-147.27;100.00;65176.34;5116221;28;19948;-55
2023/08/27 01:44:17;;;;;;;;;;;;;;;-147.27;100.00;65176.34;5107737;28;19923;-57
2023/08/27 01:46:43;;;;;;;;;;;;;;;-147.27;100.00;65176.34;5131593;28;20603;-57
2023/08/27 01:49:08;;;;;;;;;;;;;;;-147.27;100.00;65176.34;5115715;28;19916;-54
2023/08/27 01:51:34;;;;;;;;;;;;;;;-147.27;100.00;65176.34;5131430;28;19924;-55
2023/08/27 01:53:59;;;;;;;;;;;;;;;-147.27;100.00;65176.34;5123433;28;19942;-52
2023/08/27 01:56:25;;;;;;;;;;;;;;;-147.27;100.00;65176.34;5097552;28;19938;-58
2023/08/27 01:58:50;;;;;;;;;;;;;;;-147.27;100.00;65176.34;5131418;28;19923;-57
2023/08/27 02:01:17;;;;;;;;;;;;;;;-147.27;100.00;65176.34;5131374;28;19916;-56
2023/08/27 02:03:44;;;;;;;;;;;;;;;-147.27;100.00;65176.34;5119363;28;19916;-56
2023/08/27 02:06:11;;;;;;;;;;;;;;;-147.27;100.00;65176.34;5116947;28;19927;-53
2023/08/27 02:08:36;;;;;;;;;;;;;;;-147.27;100.00;65176.34;5125827;28;19920;-55
2023/08/27 02:11:01;;;;;;;;;;;;;;;-147.27;100.00;65176.34;5115402;28;19931;-58
2023/08/27 02:13:27;;;;;;;;;;;;;;;-147.27;100.00;65176.34;5098915;28;19938;-54
2023/08/27 02:15:52;;;;;;;;;;;;;;;-147.27;100.00;65176.34;5117622;28;19963;-56
2023/08/27 02:18:20;;;;;;;;;;;;;;;-147.27;100.00;65176.34;5140110;27;19923;-55
2023/08/27 02:20:45;;;;;;;;;;;;;;;-147.27;100.00;65176.34;5097573;28;19995;-55
2023/08/27 02:23:11;;;;;;;;;;;;;;;-147.27;100.00;65176.34;5131489;28;19922;-57
2023/08/27 02:25:36;;;;;;;;;;;;;;;-147.27;100.00;65176.34;5100695;28;19926;-58
2023/08/27 02:28:02;;;;;;;;;;;;;;;-147.27;100.00;65176.34;5107259;28;19949;-56
2023/08/27 02:30:27;;;;;;;;;;;;;;;-147.27;100.00;65176.34;5115160;28;19979;-55
2023/08/27 02:32:53;;;;;;;;;;;;;;;-147.27;100.00;65176.34;5097361;28;19995;-54
2023/08/27 02:35:18;;;;;;;;;;;;;;;-147.27;100.00;65176.34;5114851;28;19922;-55
2023/08/27 02:37:44;;;;;;;;;;;;;;;-147.27;100.00;65176.34;5104867;28;19979;-59
2023/08/27 02:40:10;;;;;;;;;;;;;;;-147.27;100.00;65176.34;5115006;28;19923;-55
2023/08/27 02:42:36;;;;;;;;;;;;;;;-147.27;100.00;65176.34;5131416;28;19928;-56
2023/08/27 02:45:03;;;;;;;;;;;;;;;-147.27;100.00;65176.34;5115008;28;19924;-57
2023/08/27 02:47:29;;;;;;;;;;;;;;;-147.27;100.00;65176.34;5139811;27;19987;-56
2023/08/27 02:49:55;;;;;;;;;;;;;;;-147.27;100.00;65176.34;5135271;28;19938;-56
2023/08/27 02:52:20;;;;;;;;;;;;;;;-147.27;100.00;65176.34;5119072;28;19927;-56
2023/08/27 02:54:46;;;;;;;;;;;;;;;-147.27;100.00;65176.34;5120815;28;19923;-56
2023/08/27 02:57:11;;;;;;;;;;;;;;;-147.27;100.00;65176.34;5128044;28;19926;-57
2023/08/27 02:59:36;;;;;;;;;;;;;;;-147.27;100.00;65176.34;5122244;28;19920;-56
2023/08/27 03:02:02;;;;;;;;;;;;;;;-147.27;100.00;65176.34;5135105;28;19967;-57
2023/08/27 03:04:28;;;;;;;;;;;;;;;-147.27;100.00;65176.34;5147282;27;19973;-53
2023/08/27 03:06:54;;;;;;;;;;;;;;;-147.27;100.00;65176.34;5137452;28;19942;-57
2023/08/27 03:09:19;;;;;;;;;;;;;;;-147.27;100.00;65176.34;5137400;27;19916;-54
2023/08/27 03:11:45;;;;;;;;;;;;;;;-147.27;100.00;65176.34;5118882;28;19927;-57
2023/08/27 03:14:10;;;;;;;;;;;;;;;-147.27;100.00;65176.34;5100777;28;19955;-57
2023/08/27 03:16:36;;;;;;;;;;;;;;;-147.27;100.00;65176.34;5117862;28;19916;-56
2023/08/27 03:19:02;;;;;;;;;;;;;;;-147.27;100.00;65176.34;5134779;28;19927;-56
2023/08/27 03:21:27;;;;;;;;;;;;;;;-147.27;100.00;65176.34;5134968;28;19916;-57
2023/08/27 03:23:54;;;;;;;;;;;;;;;-147.27;100.00;65176.34;5125032;28;19916;-59
2023/08/27 03:26:20;;;;;;;;;;;;;;;-147.27;100.00;65176.34;5134607;27;19938;-60
2023/08/27 03:28:47;;;;;;;;;;;;;;;-147.27;100.00;65176.34;5133769;28;21295;-61
2023/08/27 03:31:13;;;;;;;;;;;;;;;-147.27;100.00;65176.34;5118513;28;19916;-61
2023/08/27 03:33:39;;;;;;;;;;;;;;;-147.27;100.00;65176.34;5138028;27;19987;-60
2023/08/27 03:36:05;;;;;;;;;;;;;;;-147.27;100.00;65176.34;5119179;28;19916;-62
2023/08/27 03:38:32;;;;;;;;;;;;;;;-147.27;100.00;65176.34;5146303;27;19920;-60
2023/08/27 03:40:57;;;;;;;;;;;;;;;-147.27;100.00;65176.34;5100497;28;19912;-60
2023/08/27 03:43:23;;;;;;;;;;;;;;;-147.27;100.00;65176.34;5118779;28;19938;-61
2023/08/27 03:45:48;;;;;;;;;;;;;;;-147.27;100.00;65176.34;5118146;28;19916;-60
2023/08/27 03:48:14;;;;;;;;;;;;;;;-147.27;100.00;65176.34;5117731;28;19935;-61
2023/08/27 03:50:40;;;;;;;;;;;;;;;-147.27;100.00;65176.34;5134367;28;19916;-62
2023/08/27 03:53:06;;;;;;;;;;;;;;;-147.27;100.00;65176.34;5133784;28;19987;-62
2023/08/27 03:55:41;;;;;;;;;;;;;;;-147.27;100.00;65176.34;5134070;28;19927;-61
2023/08/27 03:58:08;;;;;;;;;;;;;;;-147.27;100.00;65176.34;5133383;27;19916;-62
2023/08/27 04:00:34;;;;;;;;;;;;;;;-147.27;100.00;65176.34;5117731;28;19916;-62
2023/08/27 04:03:00;;;;;;;;;;;;;;;-147.27;100.00;65176.34;5116690;28;19916;-62
2023/08/27 04:05:25;;;;;;;;;;;;;;;-147.27;100.00;65176.34;5111719;28;19916;-62
2023/08/27 04:07:51;;;;;;;;;;;;;;;-147.27;100.00;65176.34;5125865;28;20003;-60
2023/08/27 04:10:16;;;;;;;;;;;;;;;-147.27;100.00;65176.34;5099948;28;19923;-61
2023/08/27 04:12:42;;;;;;;;;;;;;;;-147.27;100.00;65176.34;5117558;28;19923;-61
2023/08/27 04:15:08;;;;;;;;;;;;;;;-147.27;100.00;65176.34;5133739;28;19916;-61
2023/08/27 04:17:33;;;;;;;;;;;;;;;-147.27;100.00;65176.34;5123571;28;19916;-61
2023/08/27 04:19:58;;;;;;;;;;;;;;;-147.27;100.00;65176.34;5110641;28;20033;-62
2023/08/27 04:22:24;;;;;;;;;;;;;;;-147.27;100.00;65176.34;5096785;28;19916;-61
2023/08/27 04:24:50;;;;;;;;;;;;;;;-147.27;100.00;65176.34;5114861;28;19924;-61
2023/08/27 04:27:16;;;;;;;;;;;;;;;-147.27;100.00;65176.34;5131279;28;19920;-61
2023/08/27 04:29:41;;;;;;;;;;;;;;;-147.27;100.00;65176.34;5127707;28;19916;-62
2023/08/27 04:32:07;;;;;;;;;;;;;;;-147.27;100.00;65176.34;5088315;28;19916;-61
2023/08/27 04:34:32;;;;;;;;;;;;;;;-147.27;100.00;65176.34;5119692;28;20005;-61
2023/08/27 04:36:58;;;;;;;;;;;;;;;-147.27;100.00;65176.34;5123732;28;19915;-60
2023/08/27 04:39:26;;;;;;;;;;;;;;;-147.27;100.00;65176.34;5104557;28;19916;-62
2023/08/27 04:41:52;;;;;;;;;;;;;;;-147.27;100.00;65176.34;5133088;28;19916;-62
2023/08/27 04:44:18;;;;;;;;;;;;;;;-147.27;100.00;65176.34;5103509;28;19938;-61
2023/08/27 04:46:43;;;;;;;;;;;;;;;-147.27;100.00;65176.34;5101685;28;19916;-62
2023/08/27 04:49:09;;;;;;;;;;;;;;;-147.27;100.00;65176.34;5099000;28;19941;-62
2023/08/27 04:51:35;;;;;;;;;;;;;;;-147.27;100.00;65176.34;5099220;28;19916;-61
2023/08/27 04:54:01;;;;;;;;;;;;;;;-147.27;100.00;65176.34;5116704;28;19918;-61
2023/08/27 04:56:27;;;;;;;;;;;;;;;-147.27;100.00;65176.34;5098976;28;19927;-61
2023/08/27 04:58:53;;;;;;;;;;;;;;;-147.27;100.00;65176.34;5104249;28;19916;-62
2023/08/27 05:01:19;;;;;;;;;;;;;;;-147.27;100.00;65176.34;5093933;28;19916;-61
2023/08/27 05:03:44;;;;;;;;;;;;;;;-147.27;100.00;65176.34;5116564;28;19930;-61
2023/08/27 05:06:10;;;;;;;;;;;;;;;-147.27;100.00;65176.34;5098597;28;19916;-61
2023/08/27 05:08:36;;;;;;;;;;;;;;;-147.27;100.00;65176.34;5121827;28;19919;-61
2023/08/27 05:11:01;;;;;;;;;;;;;;;-147.27;100.00;65176.34;5117212;28;19923;-61
2023/08/27 05:13:27;;;;;;;;;;;;;;;-147.27;100.00;65176.34;5116363;28;19924;-60
2023/08/27 05:15:52;;;;;;;;;;;;;;;-147.27;100.00;65176.34;5136623;27;19943;-61
2023/08/27 05:18:19;;;;;;;;;;;;;;;-147.27;100.00;65176.34;5132545;28;19916;-61
2023/08/27 05:20:47;;;;;;;;;;;;;;;-147.27;100.00;65176.34;5132514;28;19916;-60
2023/08/27 05:23:13;;;;;;;;;;;;;;;-147.27;100.00;65176.34;5098381;28;19977;-61
2023/08/27 05:25:38;;;;;;;;;;;;;;;-147.27;100.00;65176.34;5116220;28;19922;-62
2023/08/27 05:28:04;;;;;;;;;;;;;;;-147.27;100.00;65176.34;5116147;28;19927;-60
2023/08/27 05:30:29;;;;;;;;;;;;;;;-147.27;100.00;65176.34;5097251;28;19942;-61
2023/08/27 05:32:54;;;;;;;;;;;;;;;-147.27;100.00;65176.34;5132318;28;19987;-61
2023/08/27 05:35:21;;;;;;;;;;;;;;;-147.27;100.00;65176.34;5098133;28;19938;-61
2023/08/27 05:37:46;;;;;;;;;;;;;;;-147.27;100.00;65176.34;5116080;28;19916;-59
2023/08/27 05:40:12;;;;;;;;;;;;;;;-147.27;100.00;65176.34;5115865;28;19955;-60
2023/08/27 05:42:37;;;;;;;;;;;;;;;-147.27;100.00;65176.34;5116117;28;19919;-60
2023/08/27 05:45:03;;;;;;;;;;;;;;;-147.27;100.00;65176.34;5116838;28;19916;-61
2023/08/27 05:47:29;;;;;;;;;;;;;;;-147.27;100.00;65176.34;5132017;28;19928;-62
2023/08/27 05:49:55;;;;;;;;;;;;;;;-147.27;100.00;65176.34;5124398;28;19948;-58
2023/08/27 05:52:21;;;;;;;;;;;;;;;-147.27;100.00;65176.34;5097889;28;19915;-57
2023/08/27 05:54:47;;;;;;;;;;;;;;;-147.27;100.00;65176.34;5117687;28;19916;-61
2023/08/27 05:57:13;;;;;;;;;;;;;;;-147.27;100.00;65176.34;5124625;28;19924;-61
2023/08/27 05:59:38;;;;;;;;;;;;;;;-147.27;100.00;65176.34;5131589;28;19947;-58
2023/08/27 06:02:04;;;;;;;;;;;;;;;-147.27;100.00;65176.34;5097725;28;19916;-62
2023/08/27 06:04:30;;;;;;;;;;;;;;;-147.27;100.00;65176.34;5131725;28;19916;-59
2023/08/27 06:06:56;;;;;;;;;;;;;;;-147.27;100.00;65176.34;5140168;27;19923;-60
2023/08/27 06:09:22;;;;;;;;;;;;;;;-147.27;100.00;65176.34;5099924;28;19916;-59
2023/08/27 06:11:47;;;;;;;;;;;;;;;-147.27;100.00;65176.34;5131855;28;19916;-61
2023/08/27 06:14:13;;;;;;;;;;;;;;;-147.27;100.00;65176.34;5097564;28;19947;-60
2023/08/27 06:16:39;;;;;;;;;;;;;;;-147.27;100.00;65176.34;5105777;28;19916;-58
2023/08/27 06:19:04;;;;;;;;;;;;;;;-147.27;100.00;65176.34;5101551;28;19924;-58
2023/08/27 06:21:30;;;;;;;;;;;;;;;-147.27;100.00;65176.34;5097043;28;19927;-59
2023/08/27 06:23:55;;;;;;;;;;;;;;;-147.27;100.00;65176.34;5115312;28;19924;-59
2023/08/27 06:26:22;;;;;;;;;;;;;;;-147.27;100.00;65176.34;5100812;28;19916;-59
2023/08/27 06:28:48;;;;;;;;;;;;;;;-147.27;100.00;65176.34;5131373;28;19920;-58
2023/08/27 06:31:13;;;;;;;;;;;;;;;-147.27;100.00;65176.34;5130909;28;19916;-58
2023/08/27 06:33:40;;;;;;;;;;;;;;;-147.27;100.00;65176.34;5097638;28;19915;-61
2023/08/27 06:36:06;;;;;;;;;;;;;;;-147.27;100.00;65176.34;5131471;28;19923;-59
2023/08/27 06:38:31;;;;;;;;;;;;;;;-147.27;100.00;65176.34;5097574;28;19916;-60
2023/08/27 06:40:58;;;;;;;;;;;;;;;-147.27;100.00;65176.34;5131444;28;19923;-58
2023/08/27 06:43:23;;;;;;;;;;;;;;;-147.27;100.00;65176.34;5131185;28;19920;-58
2023/08/27 06:45:49;;;;;;;;;;;;;;;-147.27;100.00;65176.34;5131239;28;19927;-57
2023/08/27 06:48:15;;;;;;;;;;;;;;;-147.27;100.00;65176.34;5131008;28;19920;-57
2023/08/27 06:50:41;;;;;;;;;;;;;;;-147.27;100.00;65176.34;5097028;28;19916;-58
2023/08/27 06:53:06;;;;;;;;;;;;;;;-147.27;100.00;65176.34;5114977;28;19920;-58
2023/08/27 06:55:32;;;;;;;;;;;;;;;-147.27;100.00;65176.34;5097243;28;19939;-60
2023/08/27 06:57:58;;;;;;;;;;;;;;;-147.27;100.00;65176.34;5142444;28;20282;-58
2023/08/27 07:00:25;;;;;;;;;;;;;;;-147.27;100.00;65176.34;5090101;28;19966;-57
2023/08/27 07:02:51;;;;;;;;;;;;;;;-147.27;100.00;65176.34;5131007;28;19916;-58
2023/08/27 07:05:18;;;;;;;;;;;;;;;-147.27;100.00;65176.34;5097050;28;19923;-59
2023/08/27 07:07:44;;;;;;;;;;;;;;;-147.27;100.00;65176.34;5143786;28;19954;-59
2023/08/27 07:10:10;;;;;;;;;;;;;;;-147.27;100.00;65176.34;5102317;28;19991;-58
2023/08/27 07:12:36;;;;;;;;;;;;;;;-147.27;100.00;65176.34;5114915;28;19947;-57
2023/08/27 07:15:04;;;;;;;;;;;;;;;-147.27;100.00;65176.34;5084193;28;19939;-59
2023/08/27 07:17:29;;;;;;;;;;;;;;;-147.27;100.00;65176.34;5103449;28;19924;-57
2023/08/27 07:19:54;;;;;;;;;;;;;;;-147.27;100.00;65176.34;5097211;28;19916;-58
2023/08/27 07:22:20;;;;;;;;;;;;;;;-147.27;100.00;65176.34;5130710;28;19924;-57
2023/08/27 07:24:46;;;;;;;;;;;;;;;-147.27;100.00;65176.34;5114907;28;19916;-58
2023/08/27 07:27:12;;;;;;;;;;;;;;;-147.27;100.00;65176.34;5125232;28;19935;-57
2023/08/27 07:29:37;;;;;;;;;;;;;;;-147.27;100.00;65176.34;5132323;28;19920;-58
2023/08/27 07:32:04;;;;;;;;;;;;;;;-147.27;100.00;65176.34;5100433;28;19916;-58
2023/08/27 07:34:30;;;;;;;;;;;;;;;-147.27;100.00;65176.34;5132867;28;19934;-58
2023/08/27 07:36:56;;;;;;;;;;;;;;;-147.27;100.00;65176.34;5134394;28;20023;-58
2023/08/27 07:39:22;;;;;;;;;;;;;;;-147.27;100.00;65176.34;5100317;28;19916;-58
2023/08/27 07:41:49;;;;;;;;;;;;;;;-147.27;100.00;65176.34;5136332;27;19942;-57
2023/08/27 07:44:15;;;;;;;;;;;;;;;-147.27;100.00;65176.34;5117780;28;19916;-61
2023/08/27 07:46:42;;;;;;;;;;;;;;;-147.27;100.00;65176.34;5118246;28;19916;-57
2023/08/27 07:49:09;;;;;;;;;;;;;;;-147.27;100.00;65176.34;5144271;27;19928;-56
2023/08/27 07:51:35;;;;;;;;;;;;;;;-147.27;100.00;65176.34;5099926;28;19927;-58
2023/08/27 07:54:01;;;;;;;;;;;;;;;-147.27;100.00;65176.34;5100269;28;19972;-58
2023/08/27 07:56:26;;;;;;;;;;;;;;;-147.27;100.00;65176.34;5100019;28;19916;-57
2023/08/27 07:58:52;;;;;;;;;;;;;;;-147.27;100.00;65176.34;5100227;28;19923;-54
2023/08/27 08:01:17;;;;;;;;;;;;;;;-147.27;100.00;65176.34;5133223;28;19931;-54
2023/08/27 08:03:43;;;;;;;;;;;;;;;-147.27;100.00;65176.34;5100051;28;19926;-57
2023/08/27 08:06:09;;;;;;;;;;;;;;;-147.27;100.00;65176.34;5119103;28;19946;-58
2023/08/27 08:08:34;;;;;;;;;;;;;;;-147.27;100.00;65176.34;5116838;28;19927;-58
2023/08/27 08:11:00;;;;;;;;;;;;;;;-147.27;100.00;65176.34;5117590;28;19916;-57
2023/08/27 08:13:26;;;;;;;;;;;;;;;-147.27;100.00;65176.34;5117729;28;19938;-56
2023/08/27 08:15:51;;;;;;;;;;;;;;;-147.27;100.00;65176.34;5117229;28;19923;-57
2023/08/27 08:18:17;;;;;;;;;;;;;;;-147.27;100.00;65176.34;5117595;28;19916;-57
2023/08/27 08:20:43;;;;;;;;;;;;;;;-147.27;100.00;65176.34;5117503;28;19923;-57
2023/08/27 08:23:09;;;;;;;;;;;;;;;-147.27;100.00;65176.34;5117269;28;19916;-57
2023/08/27 08:25:37;;;;;;;;;;;;;;;-147.27;100.00;65176.34;5117299;28;19924;-58
2023/08/27 08:28:05;;;;;;;;;;;;;;;-147.27;100.00;65176.34;5125147;28;19924;-56
2023/08/27 08:30:31;;;;;;;;;;;;;;;-147.27;100.00;65176.34;5121510;28;19923;-58
2023/08/27 08:32:56;;;;;;;;;;;;;;;-147.27;100.00;65176.34;5117402;28;19920;-53
2023/08/27 08:35:22;;;;;;;;;;;;;;;-147.27;100.00;65176.34;5117116;28;19943;-58
2023/08/27 08:37:47;;;;;;;;;;;;;;;-147.27;100.00;65176.34;5117078;28;19923;-57
2023/08/27 08:40:14;;;;;;;;;;;;;;;-147.27;100.00;65176.34;5116362;28;19932;-58
2023/08/27 08:42:46;;;;;;;;;;;;;;;-147.27;100.00;65176.34;5117259;28;19927;-57
2023/08/27 08:45:13;;;;;;;;;;;;;;;-147.27;100.00;65176.34;5116627;28;19942;-57
2023/08/27 08:47:39;;;;;;;;;;;;;;;-147.27;100.00;65176.34;5117911;28;19920;-57
2023/08/27 08:50:06;;;;;;;;;;;;;;;-147.27;100.00;65176.34;5116529;28;19916;-58
2023/08/27 08:52:35;;;;;;;;;;;;;;;-147.27;100.00;65176.34;5116778;28;19916;-56
2023/08/27 08:55:04;;;;;;;;;;;;;;;-147.27;100.00;65176.34;5116630;28;19933;-57
2023/08/27 08:57:31;;;;;;;;;;;;;;;-147.27;100.00;65176.34;5127250;28;19939;-58
2023/08/27 08:59:57;;;;;;;;;;;;;;;-147.27;100.00;65176.34;5117145;28;19983;-59
2023/08/27 09:02:28;;;;;;;;;;;;;;;-147.27;100.00;65176.34;5110544;28;19937;-56
2023/08/27 09:04:54;;;;;;;;;;;;;;;-147.27;100.00;65176.34;5116590;28;19947;-55
2023/08/27 09:07:20;;;;;;;;;;;;;;;-147.27;100.00;65176.34;5116480;28;19987;-55
2023/08/27 09:09:48;;;;;;;;;;;;;;;-147.27;100.00;65176.34;5098273;28;19920;-57
2023/08/27 09:12:15;;;;;;;;;;;;;;;-147.27;100.00;65176.34;5116291;28;19920;-59
2023/08/27 09:14:41;;;;;;;;;;;;;;;-147.27;100.00;65176.34;5115916;28;19983;-56
2023/08/27 09:17:07;;;;;;;;;;;;;;;-147.27;100.00;65176.34;5109867;28;19917;-59
2023/08/27 09:19:33;;;;;;;;;;;;;;;-147.27;100.00;65176.34;5114196;28;19943;-57
2023/08/27 09:21:59;;;;;;;;;;;;;;;-147.27;100.00;65176.34;5115751;28;19922;-56
2023/08/27 09:24:24;;;;;;;;;;;;;;;-147.27;100.00;65176.34;5115928;28;19916;-56
2023/08/27 09:26:50;;;;;;;;;;;;;;;-147.27;100.00;65176.34;5118206;28;19916;-56
2023/08/27 09:29:17;;;;;;;;;;;;;;;-147.27;100.00;65176.34;5113545;28;19923;-58
2023/08/27 09:31:44;;;;;;;;;;;;;;;-147.27;100.00;65176.34;5115794;28;19927;-59
2023/08/27 09:34:12;;;;;;;;;;;;;;;-147.27;100.00;65176.34;5115794;28;19912;-57
2023/08/27 09:36:38;;;;;;;;;;;;;;;-147.27;100.00;65176.34;5116868;28;19921;-57
2023/08/27 09:39:08;;;;;;;;;;;;;;;-147.27;100.00;65176.34;5114629;28;19922;-57
2023/08/27 09:41:36;;;;;;;;;;;;;;;-147.27;100.00;65176.34;5110733;28;19927;-59
2023/08/27 09:44:02;;;;;;;;;;;;;;;-147.27;100.00;65176.34;5115940;28;19927;-61
2023/08/27 09:46:27;;;;;;;;;;;;;;;-147.27;100.00;65176.34;5111982;28;19916;-60
2023/08/27 09:48:59;;;;;;;;;;;;;;;-147.27;100.00;65176.34;5118618;28;19919;-61
2023/08/27 09:51:29;;;;;;;;;;;;;;;-147.27;100.00;65176.34;5115146;28;19916;-60
2023/08/27 09:53:54;;;;;;;;;;;;;;;-147.27;100.00;65176.34;5115735;28;19916;-61
2023/08/27 09:56:26;;;;;;;;;;;;;;;-147.27;100.00;65176.34;5114787;28;19916;-61
2023/08/27 09:58:53;;;;;;;;;;;;;;;-147.27;100.00;65176.34;5115643;28;19923;-59
2023/08/27 10:01:19;;;;;;;;;;;;;;;-147.27;100.00;65176.34;5118628;28;19916;-63
2023/08/27 10:03:48;;;;;;;;;;;;;;;-147.27;100.00;65176.34;5115717;28;19916;-63
2023/08/27 10:06:14;;;;;;;;;;;;;;;-147.27;100.00;65176.34;5115331;28;19920;-62
2023/08/27 10:08:47;;;;;;;;;;;;;;;-147.27;100.00;65176.34;5116205;28;19941;-62
2023/08/27 10:11:13;;;;;;;;;;;;;;;-147.27;100.00;65176.34;5115015;28;20057;-64
2023/08/27 10:13:40;;;;;;;;;;;;;;;-147.27;100.00;65176.34;5115491;28;19916;-62
2023/08/27 10:16:06;;;;;;;;;;;;;;;-147.27;100.00;65176.34;5114273;28;19916;-63
2023/08/27 10:18:32;;;;;;;;;;;;;;;-147.27;100.00;65176.34;5115230;28;19923;-62
2023/08/27 10:20:58;;;;;;;;;;;;;;;-147.27;100.00;65176.34;5115015;28;19939;-62
2023/08/27 10:23:23;;;;;;;;;;;;;;;-147.27;100.00;65176.34;5115235;28;19915;-64
2023/08/27 10:25:51;;;;;;;;;;;;;;;-147.27;100.00;65176.34;5097695;28;19912;-63
2023/08/27 10:28:17;;;;;;;;;;;;;;;-147.27;100.00;65176.34;5115284;28;19939;-62
2023/08/27 10:30:45;;;;;;;;;;;;;;;-147.27;100.00;65176.34;5114940;28;19920;-62
2023/08/27 10:33:10;;;;;;;;;;;;;;;-147.27;100.00;65176.34;5115229;28;19923;-63
2023/08/27 10:35:38;;;;;;;;;;;;;;;-147.27;100.00;65176.34;5115212;28;19990;-62
2023/08/27 10:38:04;;;;;;;;;;;;;;;-147.27;100.00;65176.34;5109500;28;20377;-62
2023/08/27 10:40:33;;;;;;;;;;;;;;;-147.27;100.00;65176.34;5115809;28;19912;-62
2023/08/27 10:43:27;;;;;;;;;;;;;;;-147.27;100.00;65176.34;5115290;28;19927;-62
2023/08/27 10:46:07;;;;;;;;;;;;;;;-147.27;100.00;65176.34;5093275;28;19951;-62
2023/08/27 10:48:36;;;;;;;;;;;;;;;-147.27;100.00;65176.34;5118429;28;19920;-62
2023/08/27 10:51:08;;;;;;;;;;;;;;;-147.27;100.00;65176.34;5114835;28;19919;-62
2023/08/27 10:53:52;;;;;;;;;;;;;;;-147.27;100.00;65176.34;5114756;28;19916;-62
2023/08/27 10:56:37;;;;;;;;;;;;;;;-147.27;100.00;65176.34;5115031;28;19919;-62
2023/08/27 10:59:07;;;;;;;;;;;;;;;-147.27;100.00;65176.34;5123503;28;19916;-63
2023/08/27 11:01:37;;;;;;;;;;;;;;;-147.27;100.00;65176.34;5104233;28;19916;-60
2023/08/27 11:04:04;;;;;;;;;;;;;;;-147.27;100.00;65176.34;5114715;28;19979;-61
2023/08/27 11:06:36;;;;;;;;;;;;;;;-147.27;100.00;65176.34;5114582;28;19923;-62
2023/08/27 11:09:10;;;;;;;;;;;;;;;-147.27;100.00;65176.34;5118687;28;19950;-63
2023/08/27 11:11:38;;;;;;;;;;;;;;;-147.27;100.00;65176.34;5112590;28;19912;-62
2023/08/27 11:14:08;;;;;;;;;;;;;;;-147.27;100.00;65176.34;5113532;28;19916;-61
2023/08/27 11:16:42;;;;;;;;;;;;;;;-147.27;100.00;65176.34;5107221;28;19920;-62
2023/08/27 11:19:09;;;;;;;;;;;;;;;-147.27;100.00;65176.34;5110660;28;19937;-62
2023/08/27 11:21:35;;;;;;;;;;;;;;;-147.27;100.00;65176.34;5125711;28;19970;-63
2023/08/27 11:24:23;;;;;;;;;;;;;;;-147.27;100.00;65176.34;5120781;28;19916;-62
2023/08/27 11:26:49;;;;;;;;;;;;;;;-147.27;100.00;65176.34;5117894;28;19920;-62
2023/08/27 11:29:16;;;;;;;;;;;;;;;-147.27;100.00;65176.34;5130295;28;19919;-63
2023/08/27 11:31:41;;;;;;;;;;;;;;;-147.27;100.00;65176.34;5117578;28;19916;-62
2023/08/27 11:34:07;;;;;;;;;;;;;;;-147.27;100.00;65176.34;5117596;28;19916;-62
2023/08/27 11:36:33;;;;;;;;;;;;;;;-147.27;100.00;65176.34;5117719;28;19923;-62
2023/08/27 11:39:00;;;;;;;;;;;;;;;-147.27;100.00;65176.34;5127830;28;19912;-61
2023/08/27 11:41:32;;;;;;;;;;;;;;;-147.27;100.00;65176.34;5117853;28;19916;-61
2023/08/27 11:43:58;;;;;;;;;;;;;;;-147.27;100.00;65176.34;5117460;28;19952;-61
2023/08/27 11:46:24;;;;;;;;;;;;;;;-147.27;100.00;65176.34;5117550;28;19916;-61
2023/08/27 11:48:50;;;;;;;;;;;;;;;-147.27;100.00;65176.34;5123389;28;19924;-61
2023/08/27 11:51:15;;;;;;;;;;;;;;;-147.27;100.00;65176.34;5121895;28;19917;-62
2023/08/27 11:53:41;;;;;;;;;;;;;;;-147.27;100.00;65176.34;5117498;28;19937;-63
2023/08/27 11:56:07;;;;;;;;;;;;;;;-147.27;100.00;65176.34;5117609;28;19912;-62
2023/08/27 11:58:33;;;;;;;;;;;;;;;-147.27;100.00;65176.34;5117503;28;19920;-62
2023/08/27 12:00:58;;;;;;;;;;;;;;;-147.27;100.00;65176.34;5116270;28;19969;-63
2023/08/27 12:03:24;;;;;;;;;;;;;;;-147.27;100.00;65176.34;5117641;28;19916;-62
2023/08/27 12:05:49;;;;;;;;;;;;;;;-147.27;100.00;65176.34;5116583;28;19987;-63
2023/08/27 12:08:15;;;;;;;;;;;;;;;-147.27;100.00;65176.34;5116430;28;19920;-63
2023/08/27 12:10:46;;;;;;;;;;;;;;;-147.27;100.00;65176.34;5112806;28;19916;-63
2023/08/27 12:13:12;;;;;;;;;;;;;;;-147.27;100.00;65176.34;5117305;28;19930;-63
2023/08/27 12:15:38;;;;;;;;;;;;;;;-147.27;100.00;65176.34;5115076;28;19920;-62